createdAt,value
2018-12-01T00:00:13.483Z,36.43
2018-12-01T00:01:13.482Z,36.44
2018-12-01T00:02:13.504Z,36.53
2018-12-01T00:03:13.472Z,36.35
2018-12-01T00:04:13.532Z,36.13
2018-12-01T00:05:13.463Z,36.13
2018-12-01T00:06:13.470Z,36.33
2018-12-01T00:07:13.401Z,36.13
2018-12-01T00:08:13.537Z,36.23
2018-12-01T00:09:13.472Z,36.44
2018-12-01T00:10:13.399Z,36.13
2018-12-01T00:11:13.390Z,36.23
2018-12-01T00:12:13.358Z,36.44
2018-12-01T00:13:13.354Z,36.33
2018-12-01T00:14:13.350Z,36.25
2018-12-01T00:15:13.326Z,36.25
2018-12-01T00:16:13.347Z,36.15
2018-12-01T00:17:13.297Z,36.35
2018-12-01T00:18:13.293Z,36.25
2018-12-01T00:19:13.295Z,36.85
2018-12-01T00:20:13.279Z,36.65
2018-12-01T00:21:13.318Z,37.05
2018-12-01T00:22:13.260Z,36.94
2018-12-01T00:23:13.304Z,36.94
2018-12-01T00:24:13.288Z,37.05
2018-12-01T00:25:13.208Z,37.45
2018-12-01T00:26:13.212Z,37.05
2018-12-01T00:27:13.213Z,36.94
2018-12-01T00:28:13.185Z,37.25
2018-12-01T00:29:13.164Z,37.15
2018-12-01T00:30:13.146Z,36.85
2018-12-01T00:31:13.165Z,36.33
2018-12-01T00:32:13.148Z,36.53
2018-12-01T00:33:13.138Z,36.44
2018-12-01T00:34:13.217Z,36.63
2018-12-01T00:35:13.125Z,36.53
2018-12-01T00:36:13.086Z,36.93
2018-12-01T00:37:13.134Z,36.53
2018-12-01T00:38:13.058Z,36.53
2018-12-01T00:39:13.068Z,36.63
2018-12-01T00:40:13.050Z,36.53
2018-12-01T00:41:13.024Z,36.83
2018-12-01T00:42:13.016Z,36.43
2018-12-01T00:43:13.036Z,36.63
2018-12-01T00:44:13.016Z,35.93
2018-12-01T00:45:12.984Z,36.55
2018-12-01T00:46:12.968Z,36.53
2018-12-01T00:47:12.957Z,36.85
2018-12-01T00:48:13.027Z,36.94
2018-12-01T00:49:12.949Z,36.75
2018-12-01T00:50:12.970Z,36.44
2018-12-01T00:51:12.959Z,36.35
2018-12-01T00:52:12.940Z,36.25
2018-12-01T00:53:12.923Z,36.25
2018-12-01T00:54:12.944Z,36.15
2018-12-01T00:55:12.894Z,36.15
2018-12-01T00:56:12.859Z,36.15
2018-12-01T00:57:12.846Z,36.15
2018-12-01T00:58:12.852Z,37.25
2018-12-01T00:59:12.859Z,37.05
2018-12-01T01:00:12.845Z,36.44
2018-12-01T01:01:12.818Z,36.15
2018-12-01T01:02:12.783Z,36.35
2018-12-01T01:03:12.793Z,36.25
2018-12-01T01:04:12.803Z,36.25
2018-12-01T01:05:12.747Z,36.65
2018-12-01T01:06:12.744Z,36.65
2018-12-01T01:07:12.754Z,36.55
2018-12-01T01:08:12.724Z,36.65
2018-12-01T01:09:12.744Z,36.94
2018-12-01T01:10:12.722Z,36.65
2018-12-01T01:11:12.683Z,37.05
2018-12-01T01:12:12.689Z,36.25
2018-12-01T01:13:12.666Z,36.25
2018-12-01T01:14:12.659Z,36.65
2018-12-01T01:15:12.645Z,36.75
2018-12-01T01:16:12.631Z,36.94
2018-12-01T01:17:12.626Z,36.93
2018-12-01T01:18:12.622Z,36.73
2018-12-01T01:19:12.604Z,36.75
2018-12-01T01:20:12.599Z,36.55
2018-12-01T01:21:12.610Z,36.65
2018-12-01T01:22:12.565Z,36.63
2018-12-01T01:23:12.560Z,36.65
2018-12-01T01:24:12.554Z,36.65
2018-12-01T01:25:12.576Z,36.35
2018-12-01T01:26:12.546Z,36.65
2018-12-01T01:27:12.516Z,36.55
2018-12-01T01:28:12.497Z,36.94
2018-12-01T01:29:12.492Z,36.75
2018-12-01T01:30:12.484Z,36.65
2018-12-01T01:31:12.468Z,36.75
2018-12-01T01:32:12.471Z,36.85
2018-12-01T01:33:12.464Z,36.94
2018-12-01T01:34:12.583Z,36.44
2018-12-01T01:35:12.462Z,36.35
2018-12-01T01:36:12.402Z,36.65
2018-12-01T01:37:12.404Z,36.65
2018-12-01T01:38:12.402Z,36.44
2018-12-01T01:39:12.396Z,35.64
2018-12-01T01:40:12.402Z,36.44
2018-12-01T01:41:12.358Z,36.44
2018-12-01T01:42:12.364Z,35.64
2018-12-01T01:43:12.344Z,36.35
2018-12-01T01:44:12.349Z,36.55
2018-12-01T01:45:12.347Z,36.55
2018-12-01T01:46:12.312Z,36.65
2018-12-01T01:47:12.314Z,36.76
2018-12-01T01:48:12.324Z,36.66
2018-12-01T01:49:12.262Z,36.66
2018-12-01T01:50:12.282Z,36.76
2018-12-01T01:51:12.271Z,36.96
2018-12-01T01:52:12.222Z,36.36
2018-12-01T01:53:12.230Z,36.46
2018-12-01T01:54:12.228Z,36.36
2018-12-01T01:55:12.218Z,36.96
2018-12-01T01:56:12.186Z,36.46
2018-12-01T01:57:12.214Z,36.36
2018-12-01T01:58:12.186Z,36.16
2018-12-01T01:59:12.205Z,36.16
2018-12-01T02:00:12.136Z,36.25
2018-12-01T02:01:12.135Z,36.55
2018-12-01T02:02:12.114Z,36.55
2018-12-01T02:03:12.126Z,36.44
2018-12-01T02:04:12.190Z,36.55
2018-12-01T02:05:12.115Z,36.05
2018-12-01T02:06:12.098Z,36.03
2018-12-01T02:07:12.062Z,35.94
2018-12-01T02:08:12.049Z,36.03
2018-12-01T02:09:12.117Z,36.03
2018-12-01T02:10:12.033Z,35.83
2018-12-01T02:11:12.028Z,36.23
2018-12-01T02:12:11.998Z,35.73
2018-12-01T02:13:11.991Z,36.43
2018-12-01T02:14:12.060Z,36.03
2018-12-01T02:15:11.973Z,35.85
2018-12-01T02:16:11.971Z,35.94
2018-12-01T02:17:12.023Z,35.75
2018-12-01T02:18:12.008Z,35.85
2018-12-01T02:19:11.970Z,35.85
2018-12-01T02:20:11.919Z,35.85
2018-12-01T02:21:11.905Z,36.44
2018-12-01T02:22:11.907Z,36.44
2018-12-01T02:23:11.883Z,36.55
2018-12-01T02:24:11.893Z,36.44
2018-12-01T02:25:11.861Z,36.75
2018-12-01T02:26:11.848Z,36.65
2018-12-01T02:27:11.842Z,36.94
2018-12-01T02:28:11.839Z,36.76
2018-12-01T02:29:11.842Z,37.07
2018-12-01T02:30:11.800Z,37.07
2018-12-01T02:31:11.818Z,36.96
2018-12-01T02:32:11.783Z,36.55
2018-12-01T02:33:11.874Z,36.55
2018-12-01T02:34:11.842Z,35.64
2018-12-01T02:35:11.759Z,35.66
2018-12-01T02:36:11.761Z,36.05
2018-12-01T02:37:11.748Z,35.85
2018-12-01T02:38:11.763Z,35.75
2018-12-01T02:39:11.808Z,36.35
2018-12-01T02:40:11.697Z,36.15
2018-12-01T02:41:11.689Z,35.94
2018-12-01T02:42:11.677Z,36.25
2018-12-01T02:43:11.682Z,35.85
2018-12-01T02:44:11.640Z,35.75
2018-12-01T02:45:11.634Z,36.66
2018-12-01T02:46:11.637Z,36.66
2018-12-01T02:47:11.608Z,36.66
2018-12-01T02:48:11.635Z,36.66
2018-12-01T02:49:11.583Z,37.07
2018-12-01T02:50:11.641Z,36.87
2018-12-01T02:51:11.620Z,36.44
2018-12-01T02:52:11.554Z,36.85
2018-12-01T02:53:11.637Z,36.75
2018-12-01T02:54:11.575Z,36.85
2018-12-01T02:55:11.578Z,36.46
2018-12-01T02:56:11.517Z,36.44
2018-12-01T02:57:11.518Z,36.44
2018-12-01T02:58:11.504Z,35.75
2018-12-01T02:59:11.471Z,36.05
2018-12-01T03:00:11.502Z,36.05
2018-12-01T03:01:11.459Z,35.94
2018-12-01T03:02:11.454Z,35.85
2018-12-01T03:03:11.433Z,36.05
2018-12-01T03:04:11.467Z,36.05
2018-12-01T03:05:11.422Z,36.25
2018-12-01T03:06:11.436Z,36.15
2018-12-01T03:07:11.474Z,36.35
2018-12-01T03:08:11.373Z,35.85
2018-12-01T03:09:11.358Z,36.05
2018-12-01T03:10:11.387Z,35.94
2018-12-01T03:11:11.391Z,35.94
2018-12-01T03:12:11.336Z,35.94
2018-12-01T03:13:11.343Z,36.07
2018-12-01T03:14:11.307Z,35.86
2018-12-01T03:15:11.294Z,35.86
2018-12-01T03:16:11.293Z,36.16
2018-12-01T03:17:12.068Z,35.66
2018-12-01T03:18:13.602Z,36.66
2018-12-01T03:19:11.265Z,36.46
2018-12-01T03:20:11.463Z,36.66
2018-12-01T03:21:11.249Z,36.46
2018-12-01T03:22:11.252Z,36.57
2018-12-01T03:23:11.211Z,36.36
2018-12-01T03:24:11.192Z,36.46
2018-12-01T03:25:11.208Z,36.66
2018-12-01T03:26:11.207Z,36.66
2018-12-01T03:27:11.173Z,36.66
2018-12-01T03:28:11.158Z,36.96
2018-12-01T03:29:11.191Z,36.46
2018-12-01T03:30:11.140Z,36.26
2018-12-01T03:31:11.136Z,35.86
2018-12-01T03:32:11.104Z,36.07
2018-12-01T03:33:11.103Z,35.86
2018-12-01T03:34:11.122Z,36.05
2018-12-01T03:35:11.136Z,35.96
2018-12-01T03:36:11.068Z,35.64
2018-12-01T03:37:11.078Z,35.85
2018-12-01T03:38:11.061Z,35.85
2018-12-01T03:39:11.045Z,36.07
2018-12-01T03:40:11.011Z,36.05
2018-12-01T03:41:11.070Z,35.85
2018-12-01T03:42:10.990Z,35.85
2018-12-01T03:43:10.993Z,36.05
2018-12-01T03:44:10.984Z,35.85
2018-12-01T03:45:10.978Z,36.16
2018-12-01T03:46:10.965Z,36.05
2018-12-01T03:47:10.936Z,35.85
2018-12-01T03:48:10.990Z,36.07
2018-12-01T03:49:10.970Z,36.07
2018-12-01T03:50:10.914Z,36.05
2018-12-01T03:51:10.938Z,36.05
2018-12-01T03:52:10.884Z,35.94
2018-12-01T03:53:10.884Z,36.05
2018-12-01T03:54:10.873Z,35.96
2018-12-01T03:55:10.864Z,35.86
2018-12-01T03:56:10.872Z,36.07
2018-12-01T03:57:10.863Z,35.86
2018-12-01T03:58:10.817Z,35.86
2018-12-01T03:59:10.808Z,35.96
2018-12-01T04:00:10.788Z,35.96
2018-12-01T04:01:10.778Z,35.86
2018-12-01T04:02:10.811Z,35.86
2018-12-01T04:03:10.804Z,36.36
2018-12-01T04:04:10.854Z,35.86
2018-12-01T04:05:10.734Z,36.07
2018-12-01T04:06:10.728Z,36.07
2018-12-01T04:07:10.722Z,36.26
2018-12-01T04:08:10.700Z,35.96
2018-12-01T04:09:10.689Z,36.16
2018-12-01T04:10:10.691Z,36.05
2018-12-01T04:11:10.679Z,36.07
2018-12-01T04:12:10.678Z,36.26
2018-12-01T04:13:10.679Z,35.86
2018-12-01T04:14:10.677Z,36.07
2018-12-01T04:15:10.646Z,36.07
2018-12-01T04:16:10.651Z,36.07
2018-12-01T04:17:11.482Z,35.86
2018-12-01T04:18:10.599Z,35.88
2018-12-01T04:19:10.608Z,35.98
2018-12-01T04:20:10.575Z,35.96
2018-12-01T04:21:10.553Z,36.07
2018-12-01T04:22:10.586Z,35.66
2018-12-01T04:23:10.538Z,36.38
2018-12-01T04:24:10.568Z,35.66
2018-12-01T04:25:10.511Z,35.76
2018-12-01T04:26:10.502Z,35.96
2018-12-01T04:27:10.490Z,35.86
2018-12-01T04:28:10.480Z,36.16
2018-12-01T04:29:10.472Z,36.26
2018-12-01T04:30:10.470Z,35.85
2018-12-01T04:31:10.446Z,36.16
2018-12-01T04:32:10.449Z,35.94
2018-12-01T04:33:10.433Z,36.05
2018-12-01T04:34:10.462Z,35.85
2018-12-01T04:35:10.406Z,36.65
2018-12-01T04:36:10.460Z,35.94
2018-12-01T04:37:10.397Z,35.94
2018-12-01T04:38:10.385Z,36.25
2018-12-01T04:39:10.352Z,35.85
2018-12-01T04:40:10.423Z,36.35
2018-12-01T04:41:10.333Z,36.16
2018-12-01T04:42:10.321Z,35.86
2018-12-01T04:43:10.403Z,36.07
2018-12-01T04:44:10.300Z,35.96
2018-12-01T04:45:10.296Z,36.07
2018-12-01T04:46:10.277Z,36.07
2018-12-01T04:47:10.274Z,36.46
2018-12-01T04:48:10.262Z,36.18
2018-12-01T04:49:10.279Z,36.28
2018-12-01T04:50:10.298Z,36.38
2018-12-01T04:51:10.223Z,35.96
2018-12-01T04:52:10.210Z,36.07
2018-12-01T04:53:10.249Z,36.07
2018-12-01T04:54:10.259Z,36.08
2018-12-01T04:55:10.169Z,36.16
2018-12-01T04:56:10.277Z,35.76
2018-12-01T04:57:10.161Z,36.07
2018-12-01T04:58:10.167Z,35.96
2018-12-01T04:59:10.126Z,35.88
2018-12-01T05:00:10.121Z,36.26
2018-12-01T05:01:10.114Z,36.16
2018-12-01T05:02:10.155Z,36.26
2018-12-01T05:03:10.121Z,36.26
2018-12-01T05:04:10.127Z,36.36
2018-12-01T05:05:10.057Z,36.26
2018-12-01T05:06:10.055Z,36.26
2018-12-01T05:07:10.037Z,36.36
2018-12-01T05:08:10.041Z,36.26
2018-12-01T05:09:10.032Z,36.16
2018-12-01T05:10:10.002Z,36.26
2018-12-01T05:11:10.011Z,35.86
2018-12-01T05:12:09.980Z,36.36
2018-12-01T05:13:09.997Z,36.15
2018-12-01T05:14:10.044Z,36.46
2018-12-01T05:15:09.986Z,36.16
2018-12-01T05:16:09.937Z,36.16
2018-12-01T05:17:09.948Z,36.46
2018-12-01T05:18:09.927Z,36.46
2018-12-01T05:19:09.934Z,35.86
2018-12-01T05:20:09.907Z,36.46
2018-12-01T05:21:09.946Z,35.96
2018-12-01T05:22:09.921Z,36.16
2018-12-01T05:23:09.888Z,35.46
2018-12-01T05:24:09.902Z,35.66
2018-12-01T05:25:09.920Z,35.96
2018-12-01T05:26:09.877Z,35.96
2018-12-01T05:27:09.858Z,35.86
2018-12-01T05:28:09.810Z,36.16
2018-12-01T05:29:09.865Z,35.96
2018-12-01T05:30:09.854Z,36.36
2018-12-01T05:31:09.814Z,36.07
2018-12-01T05:32:09.805Z,35.96
2018-12-01T05:33:09.760Z,35.66
2018-12-01T05:34:09.908Z,35.66
2018-12-01T05:35:09.799Z,36.16
2018-12-01T05:36:09.762Z,35.96
2018-12-01T05:37:10.153Z,35.66
2018-12-01T05:38:09.708Z,35.96
2018-12-01T05:39:09.726Z,35.88
2018-12-01T05:40:09.674Z,35.86
2018-12-01T05:41:09.654Z,35.88
2018-12-01T05:42:09.723Z,35.98
2018-12-01T05:43:09.657Z,36.07
2018-12-01T05:44:09.632Z,36.28
2018-12-01T05:45:09.667Z,36.26
2018-12-01T05:46:09.637Z,36.28
2018-12-01T05:47:09.589Z,36.28
2018-12-01T05:48:09.626Z,36.18
2018-12-01T05:49:09.600Z,36.18
2018-12-01T05:50:09.566Z,36.28
2018-12-01T05:51:09.555Z,36.18
2018-12-01T05:52:09.536Z,36.08
2018-12-01T05:53:09.526Z,35.98
2018-12-01T05:54:09.521Z,36.36
2018-12-01T05:55:09.499Z,35.88
2018-12-01T05:56:09.493Z,36.07
2018-12-01T05:57:09.488Z,36.28
2018-12-01T05:58:09.504Z,36.28
2018-12-01T05:59:09.502Z,36.07
2018-12-01T06:00:09.485Z,36.07
2018-12-01T06:01:09.443Z,35.66
2018-12-01T06:02:09.461Z,35.66
2018-12-01T06:03:09.413Z,35.66
2018-12-01T06:04:14.009Z,35.64
2018-12-01T06:05:09.415Z,35.66
2018-12-01T06:06:09.379Z,35.66
2018-12-01T06:07:09.384Z,35.66
2018-12-01T06:08:09.381Z,35.76
2018-12-01T06:09:09.377Z,35.66
2018-12-01T06:10:09.356Z,36.16
2018-12-01T06:11:09.341Z,35.66
2018-12-01T06:12:09.307Z,35.76
2018-12-01T06:13:09.365Z,36.16
2018-12-01T06:14:09.294Z,35.46
2018-12-01T06:15:09.348Z,35.66
2018-12-01T06:16:09.297Z,35.76
2018-12-01T06:17:09.265Z,35.76
2018-12-01T06:18:09.271Z,35.76
2018-12-01T06:19:09.249Z,35.46
2018-12-01T06:20:09.268Z,36.07
2018-12-01T06:21:09.217Z,35.66
2018-12-01T06:22:09.240Z,35.66
2018-12-01T06:23:09.216Z,35.76
2018-12-01T06:24:09.213Z,35.46
2018-12-01T06:25:09.186Z,35.86
2018-12-01T06:26:09.194Z,35.88
2018-12-01T06:27:09.142Z,36.07
2018-12-01T06:28:09.142Z,35.66
2018-12-01T06:29:09.155Z,36.16
2018-12-01T06:30:09.114Z,35.56
2018-12-01T06:31:09.097Z,35.76
2018-12-01T06:32:09.098Z,35.66
2018-12-01T06:33:09.105Z,35.68
2018-12-01T06:34:09.170Z,35.78
2018-12-01T06:35:09.064Z,35.88
2018-12-01T06:36:09.051Z,36.28
2018-12-01T06:37:09.087Z,35.88
2018-12-01T06:38:09.026Z,35.38
2018-12-01T06:39:09.045Z,35.76
2018-12-01T06:40:09.048Z,36.08
2018-12-01T06:41:08.997Z,36.28
2018-12-01T06:42:08.977Z,35.48
2018-12-01T06:43:08.981Z,35.68
2018-12-01T06:44:08.963Z,35.58
2018-12-01T06:45:08.967Z,36.08
2018-12-01T06:46:08.932Z,36.68
2018-12-01T06:47:08.919Z,35.86
2018-12-01T06:48:08.902Z,36.08
2018-12-01T06:49:08.901Z,35.96
2018-12-01T06:50:08.896Z,35.98
2018-12-01T06:51:08.880Z,35.46
2018-12-01T06:52:08.866Z,35.66
2018-12-01T06:53:08.863Z,35.76
2018-12-01T06:54:08.849Z,35.46
2018-12-01T06:55:08.872Z,36.16
2018-12-01T06:56:09.926Z,36.16
2018-12-01T06:57:08.805Z,35.56
2018-12-01T06:58:08.798Z,35.66
2018-12-01T06:59:08.790Z,35.96
2018-12-01T07:00:08.866Z,35.76
2018-12-01T07:01:08.785Z,35.46
2018-12-01T07:02:08.858Z,35.46
2018-12-01T07:03:08.734Z,35.56
2018-12-01T07:04:08.867Z,35.76
2018-12-01T07:05:08.735Z,35.46
2018-12-01T07:06:08.725Z,35.58
2018-12-01T07:07:08.731Z,35.56
2018-12-01T07:08:08.768Z,35.28
2018-12-01T07:09:08.669Z,36.07
2018-12-01T07:10:08.681Z,35.46
2018-12-01T07:11:08.679Z,35.76
2018-12-01T07:12:08.647Z,35.28
2018-12-01T07:13:08.691Z,35.78
2018-12-01T07:14:08.612Z,35.56
2018-12-01T07:15:08.606Z,36.08
2018-12-01T07:16:08.665Z,35.66
2018-12-01T07:17:08.605Z,35.78
2018-12-01T07:18:08.574Z,35.48
2018-12-01T07:19:08.601Z,35.48
2018-12-01T07:20:08.546Z,35.78
2018-12-01T07:21:08.609Z,35.48
2018-12-01T07:22:08.531Z,36.07
2018-12-01T07:23:08.529Z,36.18
2018-12-01T07:24:08.535Z,35.68
2018-12-01T07:25:08.578Z,35.48
2018-12-01T07:26:08.494Z,35.86
2018-12-01T07:27:08.501Z,36.28
2018-12-01T07:28:08.454Z,36.08
2018-12-01T07:29:08.513Z,35.48
2018-12-01T07:30:08.463Z,35.78
2018-12-01T07:31:08.476Z,36.08
2018-12-01T07:32:08.531Z,35.48
2018-12-01T07:33:08.413Z,35.76
2018-12-01T07:34:08.488Z,35.36
2018-12-01T07:35:08.383Z,35.86
2018-12-01T07:36:08.380Z,35.86
2018-12-01T07:37:08.401Z,35.86
2018-12-01T07:38:08.340Z,35.76
2018-12-01T07:39:08.380Z,35.66
2018-12-01T07:40:08.363Z,36.07
2018-12-01T07:41:08.351Z,35.56
2018-12-01T07:42:08.299Z,35.76
2018-12-01T07:43:08.349Z,35.76
2018-12-01T07:44:08.285Z,35.76
2018-12-01T07:45:08.301Z,35.56
2018-12-01T07:46:08.331Z,35.76
2018-12-01T07:47:08.246Z,35.86
2018-12-01T07:48:08.231Z,35.76
2018-12-01T07:49:08.219Z,34.96
2018-12-01T07:50:08.217Z,35.16
2018-12-01T07:51:08.288Z,35.66
2018-12-01T07:52:08.216Z,35.76
2018-12-01T07:53:08.193Z,35.76
2018-12-01T07:54:08.218Z,35.56
2018-12-01T07:55:08.167Z,35.56
2018-12-01T07:56:08.143Z,35.76
2018-12-01T07:57:08.146Z,34.98
2018-12-01T07:58:08.233Z,35.66
2018-12-01T07:59:08.106Z,35.26
2018-12-01T08:00:08.097Z,35.16
2018-12-01T08:01:08.117Z,35.96
2018-12-01T08:02:08.076Z,35.06
2018-12-01T08:03:08.067Z,35.26
2018-12-01T08:04:08.127Z,35.58
2018-12-01T08:05:08.217Z,35.78
2018-12-01T08:06:08.040Z,35.66
2018-12-01T08:07:08.017Z,35.66
2018-12-01T08:08:08.015Z,35.58
2018-12-01T08:09:08.019Z,35.58
2018-12-01T08:10:07.988Z,35.58
2018-12-01T08:11:08.076Z,35.48
2018-12-01T08:12:07.960Z,35.48
2018-12-01T08:13:07.971Z,35.48
2018-12-01T08:14:07.977Z,35.58
2018-12-01T08:15:07.929Z,35.68
2018-12-01T08:16:07.962Z,35.78
2018-12-01T08:17:07.960Z,35.28
2018-12-01T08:18:07.895Z,36.08
2018-12-01T08:19:07.888Z,35.78
2018-12-01T08:20:07.898Z,35.78
2018-12-01T08:21:07.870Z,35.56
2018-12-01T08:22:07.885Z,35.78
2018-12-01T08:23:07.843Z,35.76
2018-12-01T08:24:07.848Z,35.66
2018-12-01T08:25:07.821Z,35.06
2018-12-01T08:26:07.845Z,35.66
2018-12-01T08:27:07.802Z,35.56
2018-12-01T08:28:07.822Z,34.56
2018-12-01T08:29:07.810Z,34.46
2018-12-01T08:30:07.771Z,35.36
2018-12-01T08:31:07.815Z,35.36
2018-12-01T08:32:07.748Z,35.06
2018-12-01T08:33:07.735Z,34.96
2018-12-01T08:34:07.818Z,35.66
2018-12-01T08:35:07.705Z,35.26
2018-12-01T08:36:07.700Z,34.96
2018-12-01T08:37:07.688Z,35.14
2018-12-01T08:38:07.690Z,34.46
2018-12-01T08:39:07.719Z,34.66
2018-12-01T08:40:07.655Z,35.36
2018-12-01T08:41:07.692Z,35.16
2018-12-01T08:42:07.647Z,35.26
2018-12-01T08:43:07.625Z,35.76
2018-12-01T08:44:07.639Z,36.07
2018-12-01T08:45:07.621Z,35.36
2018-12-01T08:46:07.629Z,35.86
2018-12-01T08:47:07.580Z,35.56
2018-12-01T08:48:07.589Z,35.76
2018-12-01T08:49:07.576Z,35.56
2018-12-01T08:50:07.533Z,35.88
2018-12-01T08:51:07.572Z,35.76
2018-12-01T08:52:07.529Z,35.86
2018-12-01T08:53:07.524Z,35.36
2018-12-01T08:54:07.514Z,35.48
2018-12-01T08:55:07.477Z,35.78
2018-12-01T08:56:07.472Z,35.76
2018-12-01T08:57:08.554Z,36.08
2018-12-01T08:58:07.491Z,35.58
2018-12-01T08:59:07.502Z,35.88
2018-12-01T09:00:07.449Z,35.66
2018-12-01T09:01:07.439Z,35.56
2018-12-01T09:02:07.414Z,35.76
2018-12-01T09:03:07.410Z,35.76
2018-12-01T09:04:07.467Z,35.66
2018-12-01T09:05:07.459Z,35.06
2018-12-01T09:06:07.632Z,34.86
2018-12-01T09:07:07.352Z,34.96
2018-12-01T09:08:07.424Z,35.55
2018-12-01T09:09:07.336Z,35.06
2018-12-01T09:10:07.319Z,35.56
2018-12-01T09:11:07.341Z,35.96
2018-12-01T09:12:07.298Z,34.96
2018-12-01T09:13:07.297Z,35.66
2018-12-01T09:14:07.284Z,34.66
2018-12-01T09:15:07.303Z,35.36
2018-12-01T09:16:07.307Z,35.36
2018-12-01T09:17:07.255Z,34.55
2018-12-01T09:18:07.227Z,35.25
2018-12-01T09:19:07.265Z,34.94
2018-12-01T09:20:07.302Z,35.36
2018-12-01T09:21:07.201Z,35.36
2018-12-01T09:22:07.186Z,35.55
2018-12-01T09:23:07.201Z,34.55
2018-12-01T09:24:07.347Z,35.26
2018-12-01T09:25:07.169Z,34.74
2018-12-01T09:26:07.141Z,34.55
2018-12-01T09:27:07.194Z,34.74
2018-12-01T09:28:07.561Z,34.96
2018-12-01T09:29:07.122Z,34.46
2018-12-01T09:30:07.091Z,34.56
2018-12-01T09:31:07.145Z,34.86
2018-12-01T09:32:07.112Z,35.06
2018-12-01T09:33:07.071Z,34.46
2018-12-01T09:34:07.066Z,35.06
2018-12-01T09:35:07.056Z,35.06
2018-12-01T09:36:07.017Z,35.16
2018-12-01T09:37:07.019Z,35.56
2018-12-01T09:38:07.114Z,35.16
2018-12-01T09:39:06.988Z,35.96
2018-12-01T09:40:06.973Z,35.76
2018-12-01T09:41:07.020Z,35.66
2018-12-01T09:42:06.955Z,35.76
2018-12-01T09:43:06.971Z,35.46
2018-12-01T09:44:06.961Z,35.76
2018-12-01T09:45:06.943Z,35.76
2018-12-01T09:46:06.914Z,35.26
2018-12-01T09:47:06.900Z,35.56
2018-12-01T09:48:06.943Z,35.56
2018-12-01T09:49:06.912Z,35.86
2018-12-01T09:50:06.923Z,35.56
2018-12-01T09:51:06.866Z,35.66
2018-12-01T09:52:06.851Z,35.56
2018-12-01T09:53:06.835Z,35.76
2018-12-01T09:54:06.823Z,34.96
2018-12-01T09:55:06.867Z,35.06
2018-12-01T09:56:06.809Z,35.26
2018-12-01T09:57:06.798Z,35.16
2018-12-01T09:58:06.815Z,35.26
2018-12-01T09:59:06.792Z,35.66
2018-12-01T10:00:06.767Z,35.94
2018-12-01T10:01:06.740Z,35.25
2018-12-01T10:02:06.822Z,35.14
2018-12-01T10:03:06.745Z,35.35
2018-12-01T10:04:06.738Z,34.74
2018-12-01T10:05:06.703Z,35.05
2018-12-01T10:06:06.694Z,34.84
2018-12-01T10:07:06.688Z,34.84
2018-12-01T10:08:06.742Z,34.55
2018-12-01T10:09:06.705Z,35.35
2018-12-01T10:10:06.714Z,35.35
2018-12-01T10:11:06.631Z,34.94
2018-12-01T10:12:06.619Z,34.55
2018-12-01T10:13:06.603Z,34.44
2018-12-01T10:14:06.636Z,34.64
2018-12-01T10:15:06.592Z,34.84
2018-12-01T10:16:06.570Z,34.55
2018-12-01T10:17:06.579Z,34.55
2018-12-01T10:18:06.546Z,34.74
2018-12-01T10:19:06.567Z,34.94
2018-12-01T10:20:06.529Z,34.84
2018-12-01T10:21:06.535Z,34.74
2018-12-01T10:22:06.505Z,34.74
2018-12-01T10:23:06.537Z,34.74
2018-12-01T10:24:06.516Z,34.74
2018-12-01T10:25:06.509Z,34.55
2018-12-01T10:26:06.541Z,34.84
2018-12-01T10:27:06.493Z,34.74
2018-12-01T10:28:07.608Z,34.94
2018-12-01T10:29:06.555Z,34.74
2018-12-01T10:30:06.422Z,35.35
2018-12-01T10:31:06.421Z,35.14
2018-12-01T10:32:06.595Z,34.94
2018-12-01T10:33:06.390Z,35.14
2018-12-01T10:34:06.486Z,35.26
2018-12-01T10:35:06.379Z,35.64
2018-12-01T10:36:06.377Z,35.14
2018-12-01T10:37:06.362Z,35.85
2018-12-01T10:38:06.338Z,35.44
2018-12-01T10:39:06.359Z,35.55
2018-12-01T10:40:06.301Z,35.25
2018-12-01T10:41:06.294Z,35.14
2018-12-01T10:42:06.348Z,35.05
2018-12-01T10:43:06.315Z,35.35
2018-12-01T10:44:06.261Z,34.94
2018-12-01T10:45:06.279Z,35.35
2018-12-01T10:46:06.238Z,34.55
2018-12-01T10:47:06.281Z,34.94
2018-12-01T10:48:06.216Z,35.05
2018-12-01T10:49:06.199Z,35.25
2018-12-01T10:50:06.247Z,35.55
2018-12-01T10:51:06.221Z,34.94
2018-12-01T10:52:06.188Z,34.44
2018-12-01T10:53:06.185Z,34.44
2018-12-01T10:54:06.196Z,35.33
2018-12-01T10:55:06.133Z,34.83
2018-12-01T10:56:06.125Z,34.73
2018-12-01T10:57:06.108Z,34.74
2018-12-01T10:58:06.196Z,34.83
2018-12-01T10:59:06.092Z,34.73
2018-12-01T11:00:06.538Z,35.23
2018-12-01T11:01:06.068Z,34.83
2018-12-01T11:02:06.267Z,34.63
2018-12-01T11:03:06.071Z,35.03
2018-12-01T11:04:06.373Z,34.83
2018-12-01T11:05:06.022Z,35.03
2018-12-01T11:06:06.034Z,34.63
2018-12-01T11:07:06.012Z,34.73
2018-12-01T11:08:06.042Z,35.13
2018-12-01T11:09:06.073Z,34.73
2018-12-01T11:10:06.042Z,34.73
2018-12-01T11:11:06.037Z,34.53
2018-12-01T11:12:05.970Z,34.94
2018-12-01T11:13:05.956Z,34.53
2018-12-01T11:14:05.951Z,34.83
2018-12-01T11:15:06.103Z,35.33
2018-12-01T11:16:05.967Z,35.35
2018-12-01T11:17:05.909Z,35.44
2018-12-01T11:18:05.999Z,34.84
2018-12-01T11:19:05.871Z,35.03
2018-12-01T11:20:05.853Z,35.14
2018-12-01T11:21:06.020Z,35.05
2018-12-01T11:22:05.828Z,35.75
2018-12-01T11:23:05.832Z,34.93
2018-12-01T11:24:05.812Z,35.35
2018-12-01T11:25:05.808Z,35.33
2018-12-01T11:26:05.826Z,34.64
2018-12-01T11:27:05.818Z,34.73
2018-12-01T11:28:05.757Z,34.53
2018-12-01T11:29:05.770Z,34.93
2018-12-01T11:30:05.771Z,34.83
2018-12-01T11:31:05.771Z,34.63
2018-12-01T11:32:05.741Z,34.63
2018-12-01T11:33:05.758Z,34.63
2018-12-01T11:34:05.750Z,35.13
2018-12-01T11:35:05.691Z,34.73
2018-12-01T11:36:05.688Z,34.63
2018-12-01T11:37:05.661Z,34.83
2018-12-01T11:38:05.707Z,34.93
2018-12-01T11:39:05.686Z,34.73
2018-12-01T11:40:05.665Z,34.63
2018-12-01T11:41:05.626Z,35.03
2018-12-01T11:42:05.627Z,35.13
2018-12-01T11:43:05.590Z,35.13
2018-12-01T11:44:05.586Z,35.03
2018-12-01T11:45:05.657Z,35.13
2018-12-01T11:46:05.621Z,34.63
2018-12-01T11:47:05.548Z,34.53
2018-12-01T11:48:05.540Z,34.63
2018-12-01T11:49:05.528Z,34.81
2018-12-01T11:50:05.537Z,34.61
2018-12-01T11:51:05.525Z,35.21
2018-12-01T11:52:05.527Z,34.83
2018-12-01T11:53:05.487Z,34.83
2018-12-01T11:54:05.468Z,35.01
2018-12-01T11:55:05.488Z,35.01
2018-12-01T11:56:05.473Z,35.01
2018-12-01T11:57:05.463Z,35.03
2018-12-01T11:58:05.456Z,35.31
2018-12-01T11:59:05.423Z,35.23
2018-12-01T12:00:05.483Z,35.03
2018-12-01T12:01:05.422Z,35.13
2018-12-01T12:02:05.406Z,35.13
2018-12-01T12:03:05.411Z,34.73
2018-12-01T12:04:05.501Z,35.03
2018-12-01T12:05:05.415Z,35.23
2018-12-01T12:06:05.403Z,35.13
2018-12-01T12:07:05.338Z,35.03
2018-12-01T12:08:05.331Z,34.63
2018-12-01T12:09:05.335Z,34.63
2018-12-01T12:10:05.312Z,34.83
2018-12-01T12:11:05.331Z,34.83
2018-12-01T12:12:05.279Z,34.73
2018-12-01T12:13:05.309Z,34.53
2018-12-01T12:14:05.247Z,34.73
2018-12-01T12:15:06.032Z,34.73
2018-12-01T12:16:05.306Z,35.03
2018-12-01T12:17:05.263Z,34.73
2018-12-01T12:18:05.203Z,34.63
2018-12-01T12:19:05.229Z,34.63
2018-12-01T12:20:05.241Z,35.11
2018-12-01T12:21:05.184Z,34.41
2018-12-01T12:22:05.159Z,35.01
2018-12-01T12:23:05.148Z,35.03
2018-12-01T12:24:05.334Z,35.01
2018-12-01T12:25:05.179Z,34.83
2018-12-01T12:26:05.189Z,34.93
2018-12-01T12:27:05.191Z,34.91
2018-12-01T12:28:05.107Z,34.31
2018-12-01T12:29:05.135Z,34.41
2018-12-01T12:30:05.526Z,34.41
2018-12-01T12:31:05.069Z,34.21
2018-12-01T12:32:05.083Z,34.21
2018-12-01T12:33:05.085Z,34.11
2018-12-01T12:34:05.130Z,34.41
2018-12-01T12:35:05.188Z,34.41
2018-12-01T12:36:05.016Z,34.11
2018-12-01T12:37:05.072Z,34.21
2018-12-01T12:38:04.992Z,34.11
2018-12-01T12:39:05.097Z,34.31
2018-12-01T12:40:05.031Z,34.21
2018-12-01T12:41:04.971Z,34.31
2018-12-01T12:42:04.965Z,34.21
2018-12-01T12:43:04.945Z,34.01
2018-12-01T12:44:04.964Z,34.11
2018-12-01T12:45:04.925Z,34.21
2018-12-01T12:46:04.887Z,34.11
2018-12-01T12:47:04.975Z,34.41
2018-12-01T12:48:04.895Z,34.41
2018-12-01T12:49:04.884Z,34.91
2018-12-01T12:50:04.887Z,34.61
2018-12-01T12:51:04.899Z,35.13
2018-12-01T12:52:04.827Z,34.81